Time;durP1;ratioP1;P1;durP2;ratioP2;P2;SDS_P1;SDS_P2;PMS_P1;PMS_P2;Temp;Humidity;BMP_temperature;BMP_pressure;BME280_temperature;BME280_humidity;BME280_pressure;Samples;Min_cycle;Max_cycle;Signal;HPM_P1;HPM_P2
2023/02/21 02:15:18;;;;;;;13.47;9.53;;;8.80;99.90;;;;;;5108006;28;20229;-71
2023/02/21 02:17:58;;;;;;;14.00;10.73;;;8.80;99.90;;;;;;5107824;28;20293;-70
2023/02/21 02:20:58;;;;;;;14.90;10.80;;;8.90;99.90;;;;;;5090762;28;20923;-70
2023/02/21 02:23:44;;;;;;;12.20;9.47;;;8.90;99.90;;;;;;5107379;28;20719;-71
2023/02/21 02:26:59;;;;;;;14.67;10.43;;;8.90;99.90;;;;;;5094460;28;20717;-71
2023/02/21 02:29:44;;;;;;;12.17;9.70;;;8.90;99.90;;;;;;5077953;28;20652;-71
2023/02/21 02:32:31;;;;;;;14.50;10.97;;;9.00;99.90;;;;;;5110287;28;20225;-71
2023/02/21 02:35:07;;;;;;;15.30;11.27;;;9.00;99.90;;;;;;5111361;28;20565;-71
2023/02/21 02:37:42;;;;;;;11.57;9.90;;;9.00;99.90;;;;;;5111717;28;20213;-71
2023/02/21 02:40:18;;;;;;;15.13;10.83;;;9.00;99.90;;;;;;5111111;28;20208;-71
2023/02/21 02:42:55;;;;;;;14.23;10.87;;;9.00;99.90;;;;;;5111124;28;20638;-71
2023/02/21 02:45:28;;;;;;;13.87;10.97;;;9.00;99.90;;;;;;5111587;28;20290;-70
2023/02/21 02:48:01;;;;;;;14.83;10.43;;;9.00;99.90;;;;;;5110554;28;20316;-70
2023/02/21 02:50:29;;;;;;;13.20;10.83;;;9.00;99.90;;;;;;5090690;28;20299;-70
2023/02/21 02:53:01;;;;;;;14.27;10.57;;;9.00;99.90;;;;;;5090590;28;20908;-70
2023/02/21 02:55:37;;;;;;;15.30;10.97;;;9.00;99.90;;;;;;5091674;28;20286;-70
2023/02/21 02:58:06;;;;;;;13.50;10.73;;;9.10;99.90;;;;;;5120495;27;20243;-71
2023/02/21 03:00:36;;;;;;;12.97;9.60;;;9.10;99.90;;;;;;5110543;28;20631;-71
2023/02/21 03:03:30;;;;;;;12.77;10.00;;;9.10;99.90;;;;;;5111280;28;20234;-71
2023/02/21 03:06:12;;;;;;;15.70;10.77;;;9.20;99.90;;;;;;5109464;28;20198;-71
2023/02/21 03:08:46;;;;;;;12.03;10.10;;;9.20;99.90;;;;;;5110470;28;20312;-71
2023/02/21 03:11:17;;;;;;;11.90;9.63;;;9.10;99.90;;;;;;5110819;28;20277;-71
2023/02/21 03:13:49;;;;;;;11.73;9.10;;;9.20;99.90;;;;;;5110938;28;20199;-71
2023/02/21 03:16:20;;;;;;;11.07;9.97;;;9.20;99.90;;;;;;5110662;27;21022;-71
2023/02/21 03:18:50;;;;;;;12.00;10.10;;;9.20;99.90;;;;;;5117584;27;20347;-71
2023/02/21 03:21:22;;;;;;;11.87;9.20;;;9.20;99.90;;;;;;5131196;27;20296;-70
2023/02/21 03:23:52;;;;;;;11.83;9.20;;;9.30;99.90;;;;;;5130614;27;20751;-70
2023/02/21 03:26:20;;;;;;;10.67;8.73;;;9.30;99.90;;;;;;5122776;27;20198;-71
2023/02/21 03:28:48;;;;;;;9.87;8.97;;;9.30;99.90;;;;;;5110492;28;20290;-71
2023/02/21 03:31:17;;;;;;;10.90;9.80;;;9.40;99.90;;;;;;5109273;28;20285;-71
2023/02/21 03:33:44;;;;;;;10.27;9.07;;;9.40;99.90;;;;;;5107938;28;20576;-72
2023/02/21 03:36:11;;;;;;;9.87;8.87;;;9.40;99.90;;;;;;5107837;28;20202;-71
2023/02/21 03:38:40;;;;;;;9.37;8.33;;;9.40;99.90;;;;;;5107870;28;20298;-72
2023/02/21 03:41:08;;;;;;;9.43;8.53;;;9.40;99.90;;;;;;5107740;28;20210;-72
2023/02/21 03:43:35;;;;;;;9.03;8.13;;;9.40;99.90;;;;;;5107241;28;20289;-72
2023/02/21 03:46:02;;;;;;;10.20;8.87;;;9.40;99.90;;;;;;5107695;28;20701;-72
2023/02/21 03:48:29;;;;;;;9.60;8.70;;;9.50;99.90;;;;;;5111733;27;20341;-73
2023/02/21 03:50:56;;;;;;;10.10;8.63;;;9.50;99.90;;;;;;5128352;27;20667;-72
2023/02/21 03:53:22;;;;;;;9.47;7.93;;;9.50;99.90;;;;;;5128399;27;20258;-72
2023/02/21 03:55:51;;;;;;;9.70;8.70;;;9.50;99.90;;;;;;5103935;27;20293;-72
2023/02/21 03:58:18;;;;;;;10.33;8.57;;;9.50;99.90;;;;;;5108240;28;20654;-73
2023/02/21 04:00:45;;;;;;;9.40;8.40;;;9.60;99.90;;;;;;5106266;28;20309;-73
2023/02/21 04:03:12;;;;;;;9.43;8.50;;;9.60;99.90;;;;;;5104200;28;20281;-72
2023/02/21 04:05:39;;;;;;;11.43;9.07;;;9.60;99.90;;;;;;5098041;28;20199;-73
2023/02/21 04:08:06;;;;;;;10.03;8.80;;;9.60;99.90;;;;;;5090110;28;20202;-74
2023/02/21 04:10:33;;;;;;;10.10;9.10;;;9.60;99.90;;;;;;5107571;28;20289;-74
2023/02/21 04:13:01;;;;;;;10.97;9.80;;;9.60;99.90;;;;;;5108088;28;20225;-74
2023/02/21 04:15:28;;;;;;;9.60;8.60;;;9.60;99.90;;;;;;5108027;28;20720;-74
2023/02/21 04:17:55;;;;;;;9.20;8.30;;;9.60;99.90;;;;;;5107983;28;20244;-74
2023/02/21 04:20:22;;;;;;;9.90;8.90;;;9.60;99.90;;;;;;5128810;27;20236;-73
2023/02/21 04:22:49;;;;;;;9.30;8.40;;;9.60;99.90;;;;;;5128633;27;20248;-74
2023/02/21 04:25:16;;;;;;;10.17;8.17;;;9.60;99.90;;;;;;5129660;27;20292;-74
2023/02/21 04:27:43;;;;;;;9.27;8.30;;;9.60;99.90;;;;;;5129684;27;20292;-74
2023/02/21 04:30:12;;;;;;;9.67;8.27;;;9.60;99.90;;;;;;5126763;27;20320;-74
2023/02/21 04:32:39;;;;;;;9.73;8.73;;;9.60;99.90;;;;;;5109078;28;20241;-75
2023/02/21 04:35:06;;;;;;;11.10;8.70;;;9.60;99.90;;;;;;5108736;28;20648;-74
2023/02/21 04:37:33;;;;;;;10.03;9.00;;;9.60;99.90;;;;;;5108905;28;20206;-74
2023/02/21 04:40:00;;;;;;;9.77;8.77;;;9.60;99.90;;;;;;5108774;28;20210;-74
2023/02/21 04:42:27;;;;;;;8.90;8.10;;;9.60;99.90;;;;;;5109042;27;20293;-74
2023/02/21 04:44:53;;;;;;;10.00;9.00;;;9.60;99.90;;;;;;5108877;28;20284;-74
2023/02/21 04:47:22;;;;;;;12.63;9.23;;;9.50;99.90;;;;;;5108584;28;20233;-74
2023/02/21 04:49:50;;;;;;;12.80;10.13;;;9.50;99.90;;;;;;5123901;27;20329;-74
2023/02/21 04:52:20;;;;;;;12.67;9.63;;;9.40;99.90;;;;;;5113134;27;20202;-73
2023/02/21 04:54:47;;;;;;;10.33;9.23;;;9.40;99.90;;;;;;5109149;28;20202;-74
2023/02/21 04:57:14;;;;;;;12.60;10.33;;;9.40;99.90;;;;;;5108511;28;20292;-74
2023/02/21 04:59:41;;;;;;;13.07;10.43;;;9.30;99.90;;;;;;5108842;28;20313;-74
2023/02/21 05:02:08;;;;;;;13.53;10.07;;;9.30;99.90;;;;;;5108217;28;20325;-73
2023/02/21 05:04:36;;;;;;;12.63;9.83;;;9.30;99.90;;;;;;5108914;28;20579;-74
2023/02/21 05:07:03;;;;;;;15.37;10.60;;;9.30;99.90;;;;;;5108500;28;20300;-74
2023/02/21 05:09:30;;;;;;;13.73;11.00;;;9.30;99.90;;;;;;5101808;28;20283;-74
2023/02/21 05:11:57;;;;;;;12.93;10.57;;;9.30;99.90;;;;;;5102399;28;20233;-74
2023/02/21 05:14:24;;;;;;;13.03;9.77;;;9.30;99.90;;;;;;5108318;28;20237;-74
2023/02/21 05:16:51;;;;;;;12.97;10.67;;;9.20;99.90;;;;;;5108085;28;20208;-74
2023/02/21 05:19:25;;;;;;;13.87;9.70;;;9.20;99.90;;;;;;5108312;28;20297;-74
2023/02/21 05:21:55;;;;;;;11.73;9.70;;;9.30;99.90;;;;;;5107860;28;20190;-74
2023/02/21 05:24:22;;;;;;;11.87;9.27;;;9.30;99.90;;;;;;5108047;28;20209;-74
2023/02/21 05:26:50;;;;;;;12.37;9.47;;;9.30;99.90;;;;;;5108119;28;20585;-74
2023/02/21 05:29:17;;;;;;;12.13;9.50;;;9.30;99.90;;;;;;5107892;28;20329;-74
2023/02/21 05:31:44;;;;;;;11.90;9.90;;;9.30;99.90;;;;;;5107648;28;20293;-74
2023/02/21 05:34:11;;;;;;;11.13;9.40;;;9.30;99.90;;;;;;5107870;28;20208;-74
2023/02/21 05:36:38;;;;;;;10.20;8.87;;;9.30;99.90;;;;;;5108048;28;20301;-74
2023/02/21 05:39:08;;;;;;;12.57;9.87;;;9.30;99.90;;;;;;5107983;28;20300;-74
2023/02/21 05:41:35;;;;;;;12.97;9.57;;;9.30;99.90;;;;;;5108314;28;20201;-74
2023/02/21 05:44:03;;;;;;;11.73;9.03;;;9.30;99.90;;;;;;5107849;28;20206;-74
2023/02/21 05:46:31;;;;;;;12.43;9.67;;;9.30;99.90;;;;;;5107964;28;20297;-74
2023/02/21 05:48:59;;;;;;;11.33;8.73;;;9.20;99.90;;;;;;5115403;28;20241;-74
2023/02/21 05:51:27;;;;;;;12.50;10.13;;;9.20;99.90;;;;;;5128566;27;20296;-74
2023/02/21 05:53:54;;;;;;;11.00;9.17;;;9.20;99.90;;;;;;5127936;27;20209;-74
2023/02/21 05:56:22;;;;;;;13.63;9.93;;;9.20;99.90;;;;;;5128199;27;20301;-74
2023/02/21 05:58:49;;;;;;;12.47;8.90;;;9.20;99.90;;;;;;5128132;27;20246;-74
2023/02/21 06:01:16;;;;;;;12.13;10.10;;;9.10;99.90;;;;;;5131695;27;20679;-74
2023/02/21 06:03:43;;;;;;;12.30;8.77;;;9.20;99.90;;;;;;5111096;27;20288;-74
2023/02/21 06:06:10;;;;;;;12.30;9.17;;;9.10;99.90;;;;;;5104520;28;20992;-74
2023/02/21 06:08:47;;;;;;;13.57;9.90;;;9.10;99.90;;;;;;5111593;28;20227;-74
2023/02/21 06:11:14;;;;;;;12.90;9.77;;;9.10;99.90;;;;;;5111877;28;20272;-74
2023/02/21 06:13:43;;;;;;;10.37;9.27;;;9.10;99.90;;;;;;5111513;28;20289;-74
2023/02/21 06:16:09;;;;;;;12.60;9.40;;;9.10;99.90;;;;;;5111666;28;20301;-75
2023/02/21 06:18:36;;;;;;;13.53;9.73;;;9.00;99.90;;;;;;5117259;27;20296;-74
2023/02/21 06:21:03;;;;;;;10.90;9.00;;;9.00;99.90;;;;;;5131996;27;20288;-73
2023/02/21 06:23:30;;;;;;;12.07;9.00;;;9.10;99.90;;;;;;5131865;27;20205;-74
2023/02/21 06:25:57;;;;;;;13.30;9.30;;;9.00;99.90;;;;;;5132096;27;20296;-74
2023/02/21 06:28:28;;;;;;;12.77;9.03;;;9.00;99.90;;;;;;5126295;27;20711;-73
2023/02/21 06:30:57;;;;;;;13.00;9.03;;;9.00;99.90;;;;;;5110090;28;20552;-74
2023/02/21 06:33:24;;;;;;;11.27;8.53;;;9.00;99.90;;;;;;5110275;28;20647;-74
2023/02/21 06:35:51;;;;;;;13.07;9.03;;;9.10;99.90;;;;;;5109725;28;20660;-73
2023/02/21 06:38:18;;;;;;;12.33;8.93;;;9.10;99.90;;;;;;5110795;28;20241;-74
2023/02/21 06:40:44;;;;;;;12.73;8.53;;;9.00;99.90;;;;;;5111501;28;20290;-73
2023/02/21 06:43:11;;;;;;;12.53;9.00;;;9.10;99.90;;;;;;5111321;28;20296;-74
2023/02/21 06:45:38;;;;;;;13.13;8.37;;;9.10;99.90;;;;;;5111389;28;21075;-74
2023/02/21 06:48:07;;;;;;;11.07;8.37;;;9.10;99.90;;;;;;5110887;28;20324;-74
2023/02/21 06:50:34;;;;;;;11.40;8.27;;;9.00;99.90;;;;;;5111234;28;20222;-72
2023/02/21 06:53:01;;;;;;;11.90;8.73;;;9.10;99.90;;;;;;5110652;28;20234;-73
2023/02/21 06:55:28;;;;;;;10.80;7.80;;;9.00;99.90;;;;;;5111273;28;20274;-72
2023/02/21 06:57:55;;;;;;;11.63;7.97;;;9.00;99.90;;;;;;5111103;28;20234;-74
2023/02/21 07:00:22;;;;;;;8.67;7.07;;;9.00;99.90;;;;;;5110831;27;20327;-73
2023/02/21 07:02:49;;;;;;;9.57;7.77;;;9.00;99.90;;;;;;5111057;28;20641;-73
2023/02/21 07:05:17;;;;;;;10.77;7.07;;;9.00;99.90;;;;;;5111271;28;20648;-72
2023/02/21 07:07:44;;;;;;;10.47;7.90;;;9.00;99.90;;;;;;5110657;28;20253;-71
2023/02/21 07:10:12;;;;;;;9.87;7.77;;;9.00;99.90;;;;;;5110759;28;20701;-71
2023/02/21 07:12:39;;;;;;;10.80;8.10;;;9.00;99.90;;;;;;5110208;28;20755;-71
2023/02/21 07:15:06;;;;;;;10.80;7.83;;;9.00;99.90;;;;;;5110651;28;20199;-71
2023/02/21 07:17:33;;;;;;;9.97;7.53;;;9.00;99.90;;;;;;5110808;28;20257;-71
2023/02/21 07:20:00;;;;;;;9.43;7.73;;;9.00;99.90;;;;;;5110448;28;20292;-71
2023/02/21 07:22:28;;;;;;;7.60;6.40;;;9.00;99.90;;;;;;5110931;28;20308;-72
2023/02/21 07:24:56;;;;;;;7.60;6.27;;;9.00;99.90;;;;;;5110354;28;20320;-72
2023/02/21 07:27:23;;;;;;;7.70;5.60;;;9.00;99.90;;;;;;5110437;28;20289;-73
2023/02/21 07:29:50;;;;;;;7.57;6.40;;;9.00;99.90;;;;;;5110101;28;20282;-73
2023/02/21 07:32:17;;;;;;;7.30;6.07;;;9.10;99.90;;;;;;5110059;28;20634;-72
2023/02/21 07:34:45;;;;;;;6.93;6.00;;;9.10;99.90;;;;;;5110174;28;20660;-72
2023/02/21 07:37:12;;;;;;;5.90;5.17;;;9.10;99.90;;;;;;5110375;28;20315;-73
2023/02/21 07:39:41;;;;;;;5.97;5.43;;;9.10;99.90;;;;;;5119462;27;20256;-72
2023/02/21 07:42:08;;;;;;;6.47;5.77;;;9.10;99.90;;;;;;5110099;27;20855;-72
2023/02/21 07:44:34;;;;;;;5.33;4.70;;;9.10;99.90;;;;;;5110150;28;20206;-73
2023/02/21 07:47:02;;;;;;;6.17;4.63;;;9.10;99.90;;;;;;5109881;28;20289;-73
2023/02/21 07:49:29;;;;;;;4.63;4.20;;;9.20;99.90;;;;;;5122221;27;20802;-72
2023/02/21 07:51:55;;;;;;;4.60;4.10;;;9.20;99.90;;;;;;5130393;27;20292;-72
2023/02/21 07:54:23;;;;;;;4.47;4.03;;;9.20;99.90;;;;;;5126211;27;20286;-73
2023/02/21 07:56:51;;;;;;;4.20;3.90;;;9.20;99.90;;;;;;5109783;28;20202;-73
2023/02/21 07:59:18;;;;;;;4.13;3.73;;;9.20;99.90;;;;;;5109596;28;20233;-73
2023/02/21 08:01:46;;;;;;;3.33;3.03;;;9.20;99.90;;;;;;5109412;28;20306;-73
2023/02/21 08:04:13;;;;;;;2.00;1.90;;;9.20;99.90;;;;;;5109578;28;20205;-73
2023/02/21 08:06:40;;;;;;;2.60;2.40;;;9.20;99.90;;;;;;5109739;28;20210;-73
2023/02/21 08:09:07;;;;;;;1.80;1.70;;;9.30;99.90;;;;;;5109454;28;20300;-73
2023/02/21 08:11:35;;;;;;;1.40;1.40;;;9.30;99.90;;;;;;5109309;28;20322;-73
2023/02/21 08:14:04;;;;;;;1.20;1.10;;;9.30;99.90;;;;;;5109529;28;20202;-72
2023/02/21 08:16:30;;;;;;;0.80;0.80;;;9.40;99.90;;;;;;5109345;28;20676;-72
2023/02/21 08:18:57;;;;;;;1.07;1.07;;;9.40;99.90;;;;;;5109004;28;20645;-73
2023/02/21 08:21:24;;;;;;;1.10;0.80;;;9.50;99.90;;;;;;5109191;28;20230;-73
2023/02/21 08:23:53;;;;;;;0.80;0.80;;;9.50;99.90;;;;;;5107739;28;21059;-73
2023/02/21 08:26:20;;;;;;;0.70;0.70;;;9.50;99.90;;;;;;5109090;28;20218;-73
2023/02/21 08:28:47;;;;;;;0.73;0.73;;;9.60;99.90;;;;;;5108467;28;20259;-73
2023/02/21 08:31:15;;;;;;;0.90;0.90;;;9.60;99.90;;;;;;5108329;28;20222;-73
2023/02/21 08:33:42;;;;;;;0.60;0.60;;;9.60;99.90;;;;;;5109173;28;20314;-73
2023/02/21 08:36:09;;;;;;;1.10;1.10;;;9.60;99.90;;;;;;5118381;27;20210;-73
2023/02/21 08:38:36;;;;;;;1.07;1.07;;;9.60;99.90;;;;;;5108487;27;20206;-73
2023/02/21 08:41:04;;;;;;;1.23;1.20;;;9.60;99.90;;;;;;5108462;28;20251;-73
2023/02/21 08:43:31;;;;;;;1.10;1.10;;;9.70;99.90;;;;;;5108824;28;20198;-73
2023/02/21 08:45:58;;;;;;;1.03;1.00;;;9.70;99.90;;;;;;5108881;28;20293;-72
2023/02/21 08:48:27;;;;;;;1.20;1.20;;;9.70;99.90;;;;;;5112447;27;20286;-73
2023/02/21 08:50:54;;;;;;;0.90;0.90;;;9.70;99.90;;;;;;5122470;27;20369;-73
2023/02/21 08:53:21;;;;;;;1.37;1.20;;;9.70;99.90;;;;;;5108656;27;20241;-73
2023/02/21 08:55:47;;;;;;;1.50;1.30;;;9.70;99.90;;;;;;5108810;28;20285;-73
2023/02/21 08:58:14;;;;;;;1.00;1.00;;;9.70;99.90;;;;;;5108773;28;20202;-73
2023/02/21 09:00:41;;;;;;;1.00;1.00;;;9.70;99.90;;;;;;5108426;28;20312;-73
2023/02/21 09:03:08;;;;;;;1.10;1.00;;;9.70;99.90;;;;;;5108565;28;20336;-74
2023/02/21 09:05:36;;;;;;;1.40;1.40;;;9.70;99.90;;;;;;5108494;28;20293;-73
2023/02/21 09:08:04;;;;;;;1.50;1.40;;;9.80;99.90;;;;;;5107820;28;20321;-74
2023/02/21 09:10:33;;;;;;;1.30;1.30;;;9.80;99.90;;;;;;5108323;28;20230;-73
2023/02/21 09:13:00;;;;;;;1.33;1.33;;;9.80;99.90;;;;;;5108466;28;20575;-73
2023/02/21 09:15:27;;;;;;;1.40;1.30;;;9.80;99.90;;;;;;5108632;28;20233;-73
2023/02/21 09:17:55;;;;;;;1.40;1.30;;;9.80;99.90;;;;;;5108171;28;20251;-73
2023/02/21 09:20:24;;;;;;;1.13;1.13;;;9.80;99.90;;;;;;5108099;28;20222;-73
2023/02/21 09:22:52;;;;;;;1.90;1.80;;;9.80;99.90;;;;;;5107935;28;20324;-73
2023/02/21 09:25:23;;;;;;;0.90;0.90;;;9.80;99.90;;;;;;5107976;28;20232;-72
2023/02/21 09:27:50;;;;;;;1.00;1.00;;;9.80;99.90;;;;;;5108003;28;20265;-73
2023/02/21 09:30:22;;;;;;;1.10;1.10;;;9.80;99.90;;;;;;5104561;28;20301;-73
2023/02/21 09:32:50;;;;;;;1.40;0.93;;;9.80;99.90;;;;;;5117332;27;20266;-73
2023/02/21 09:35:17;;;;;;;0.90;0.90;;;9.80;99.90;;;;;;5107993;28;20297;-73
2023/02/21 09:37:45;;;;;;;1.83;1.20;;;9.80;99.90;;;;;;5107802;28;20658;-73
2023/02/21 09:40:21;;;;;;;1.73;1.03;;;9.90;99.90;;;;;;5108142;28;20237;-73
2023/02/21 09:42:51;;;;;;;1.33;1.30;;;9.90;99.90;;;;;;5107805;28;20205;-73
2023/02/21 09:45:21;;;;;;;1.17;1.10;;;9.90;99.90;;;;;;5108021;28;20206;-73
2023/02/21 09:47:51;;;;;;;1.03;1.03;;;10.00;99.90;;;;;;5107785;28;20605;-73
2023/02/21 09:50:21;;;;;;;1.37;1.20;;;9.90;99.90;;;;;;5127553;28;20717;-73
2023/02/21 09:52:48;;;;;;;1.60;0.97;;;10.00;99.90;;;;;;5127801;27;20193;-73
2023/02/21 09:55:27;;;;;;;0.97;0.97;;;10.00;99.90;;;;;;5128521;27;20284;-73
2023/02/21 09:57:54;;;;;;;1.00;1.00;;;10.00;99.90;;;;;;5128327;27;20277;-73
2023/02/21 10:00:23;;;;;;;1.83;1.30;;;10.00;99.90;;;;;;5128320;27;20229;-73
2023/02/21 10:02:59;;;;;;;1.50;1.10;;;10.00;99.90;;;;;;5128290;27;20229;-73
2023/02/21 10:05:39;;;;;;;0.90;0.90;;;10.00;99.90;;;;;;5128160;27;20189;-73
2023/02/21 10:08:14;;;;;;;1.87;0.90;;;10.00;99.90;;;;;;5127840;27;20284;-73
2023/02/21 10:10:47;;;;;;;1.30;1.07;;;10.00;99.90;;;;;;5128147;27;20312;-73
2023/02/21 10:13:27;;;;;;;1.47;1.30;;;10.10;99.90;;;;;;5124225;27;20202;-73
2023/02/21 10:16:01;;;;;;;0.83;0.53;;;10.20;99.90;;;;;;5107610;28;20217;-73
2023/02/21 10:18:35;;;;;;;0.70;0.70;;;10.30;99.90;;;;;;5111768;28;20289;-73
2023/02/21 10:21:04;;;;;;;0.40;0.40;;;10.40;99.90;;;;;;5128069;27;20647;-73
2023/02/21 10:23:40;;;;;;;0.70;0.70;;;10.50;99.90;;;;;;5128074;27;20209;-73
2023/02/21 10:26:12;;;;;;;1.10;0.70;;;10.60;99.90;;;;;;5128261;27;20292;-73
2023/02/21 10:28:40;;;;;;;0.70;0.70;;;10.60;99.90;;;;;;5121289;27;20209;-73
2023/02/21 10:31:11;;;;;;;0.87;0.87;;;10.50;99.90;;;;;;5106876;28;20852;-73
2023/02/21 10:33:39;;;;;;;0.80;0.60;;;10.50;99.90;;;;;;5107854;28;20285;-73
2023/02/21 10:36:12;;;;;;;1.00;0.63;;;10.50;99.90;;;;;;5107371;28;20300;-73
2023/02/21 10:38:42;;;;;;;0.73;0.50;;;10.60;99.90;;;;;;5107382;28;20202;-73
2023/02/21 10:41:12;;;;;;;1.77;0.80;;;10.60;99.90;;;;;;5107592;28;20289;-73
2023/02/21 10:43:44;;;;;;;1.03;0.73;;;10.50;99.90;;;;;;5107301;28;20399;-73
2023/02/21 10:46:17;;;;;;;1.50;0.50;;;10.60;99.90;;;;;;5108763;28;20595;-73
2023/02/21 10:48:50;;;;;;;0.50;0.50;;;10.60;99.90;;;;;;5103760;27;20233;-73
2023/02/21 10:51:28;;;;;;;1.37;0.70;;;10.60;99.90;;;;;;5131743;27;20249;-72
2023/02/21 10:54:14;;;;;;;1.57;0.60;;;10.60;99.90;;;;;;5131437;27;20192;-73
2023/02/21 10:56:43;;;;;;;1.37;0.63;;;10.60;99.90;;;;;;5131311;27;20201;-73
2023/02/21 10:59:21;;;;;;;1.10;0.60;;;10.60;99.90;;;;;;5131550;27;20324;-73
2023/02/21 11:01:49;;;;;;;1.83;0.80;;;10.60;99.90;;;;;;5131634;27;20200;-73
2023/02/21 11:04:27;;;;;;;1.50;0.70;;;10.60;99.90;;;;;;5131717;27;20197;-73
2023/02/21 11:06:57;;;;;;;1.67;0.67;;;10.60;99.90;;;;;;5131246;27;20675;-73
2023/02/21 11:09:32;;;;;;;1.27;0.80;;;10.60;99.90;;;;;;5127944;27;20218;-73
2023/02/21 11:12:16;;;;;;;1.50;0.77;;;10.60;99.90;;;;;;5110749;28;20217;-73
2023/02/21 11:14:44;;;;;;;3.53;0.80;;;10.70;99.90;;;;;;5110914;28;20236;-74
2023/02/21 11:17:18;;;;;;;0.93;0.50;;;10.70;99.90;;;;;;5110439;28;20249;-73
2023/02/21 11:19:50;;;;;;;1.10;0.87;;;10.70;99.90;;;;;;5125384;27;20796;-73
2023/02/21 11:22:20;;;;;;;2.60;0.90;;;10.60;99.90;;;;;;5131057;27;20204;-73
2023/02/21 11:25:05;;;;;;;1.10;0.77;;;10.70;99.90;;;;;;5125300;27;20209;-73
2023/02/21 11:27:35;;;;;;;2.90;0.87;;;10.60;99.90;;;;;;5109325;28;20208;-73
2023/02/21 11:30:09;;;;;;;1.43;0.80;;;10.70;99.90;;;;;;5110152;28;20591;-73
2023/02/21 11:32:39;;;;;;;3.83;1.00;;;10.70;99.90;;;;;;5110085;28;20238;-73
2023/02/21 11:35:23;;;;;;;6.93;1.10;;;10.60;99.90;;;;;;5110364;28;20289;-73
2023/02/21 11:37:53;;;;;;;4.27;1.10;;;10.60;99.90;;;;;;5109925;28;20198;-73
2023/02/21 11:40:26;;;;;;;1.77;1.17;;;10.70;99.90;;;;;;5110627;28;20237;-73
2023/02/21 11:43:11;;;;;;;2.93;1.03;;;10.80;99.90;;;;;;5109950;28;20317;-73
2023/02/21 11:45:42;;;;;;;2.63;0.70;;;10.80;99.90;;;;;;5110372;28;20281;-73
2023/02/21 11:48:16;;;;;;;4.23;1.40;;;10.90;99.90;;;;;;5111205;27;20281;-73
2023/02/21 11:50:49;;;;;;;3.07;1.10;;;10.80;99.90;;;;;;5130489;27;20270;-73
2023/02/21 11:53:24;;;;;;;4.40;1.13;;;10.70;99.90;;;;;;5130176;27;20198;-73
2023/02/21 11:55:58;;;;;;;2.93;1.20;;;10.50;99.90;;;;;;5130472;27;20189;-73
2023/02/21 11:58:31;;;;;;;2.73;0.97;;;10.50;99.90;;;;;;5130249;27;20276;-73
2023/02/21 12:01:05;;;;;;;3.30;1.37;;;10.40;99.90;;;;;;5130317;27;20278;-73
2023/02/21 12:03:59;;;;;;;3.70;1.30;;;10.40;99.90;;;;;;5130398;27;20189;-73
2023/02/21 12:06:35;;;;;;;3.77;1.50;;;10.50;99.90;;;;;;5120419;27;20194;-73
2023/02/21 12:09:08;;;;;;;4.27;1.37;;;10.50;99.90;;;;;;5109255;28;20601;-73
2023/02/21 12:12:10;;;;;;;3.43;1.50;;;10.50;99.90;;;;;;5109416;28;20218;-73
2023/02/21 12:15:04;;;;;;;2.70;1.37;;;10.50;99.90;;;;;;5076171;28;20247;-73
2023/02/21 12:17:48;;;;;;;1.40;1.27;;;10.60;99.90;;;;;;5109605;28;20226;-73
2023/02/21 12:20:32;;;;;;;2.80;1.37;;;10.60;99.90;;;;;;5128683;27;20236;-73
2023/02/21 12:23:11;;;;;;;3.60;1.40;;;10.60;99.90;;;;;;5103810;28;20205;-73
2023/02/21 12:25:52;;;;;;;3.27;1.50;;;10.60;99.90;;;;;;5109402;28;20372;-73
2023/02/21 12:28:30;;;;;;;2.30;1.20;;;10.60;99.90;;;;;;5109565;28;20291;-73
2023/02/21 12:31:11;;;;;;;3.83;1.80;;;10.60;99.90;;;;;;5109068;28;20210;-73
2023/02/21 12:33:44;;;;;;;5.77;1.80;;;10.70;99.90;;;;;;5108829;28;20214;-73
2023/02/21 12:36:39;;;;;;;1.93;1.10;;;10.90;99.90;;;;;;5108991;28;20195;-73
2023/02/21 12:39:24;;;;;;;4.47;1.50;;;11.10;99.90;;;;;;5094950;28;20202;-73
2023/02/21 12:42:11;;;;;;;3.17;1.40;;;11.30;99.90;;;;;;5109165;28;20885;-73
2023/02/21 12:44:50;;;;;;;8.43;1.60;;;11.40;99.90;;;;;;5108931;28;20739;-73
2023/02/21 12:47:24;;;;;;;3.90;1.57;;;11.30;99.90;;;;;;5109302;28;20239;-73
2023/02/21 12:49:55;;;;;;;2.93;1.47;;;11.20;99.90;;;;;;5124294;27;20786;-73
2023/02/21 12:52:26;;;;;;;3.13;1.50;;;11.10;99.90;;;;;;5129257;27;20643;-73
2023/02/21 12:55:01;;;;;;;3.30;1.53;;;11.00;99.90;;;;;;5129003;27;20185;-73
2023/02/21 12:57:34;;;;;;;5.80;1.67;;;11.10;99.90;;;;;;5129730;27;20215;-73
2023/02/21 13:00:16;;;;;;;3.83;1.73;;;11.20;99.90;;;;;;5128973;27;20776;-73
2023/02/21 13:02:55;;;;;;;3.97;1.30;;;11.20;99.90;;;;;;5119411;27;20561;-73
2023/02/21 13:05:38;;;;;;;3.70;1.30;;;11.30;99.90;;;;;;5108850;28;20251;-73
2023/02/21 13:08:14;;;;;;;6.20;1.90;;;11.30;99.90;;;;;;5107740;28;20278;-73
2023/02/21 13:10:51;;;;;;;5.73;1.60;;;11.50;99.90;;;;;;5108198;28;20277;-73
2023/02/21 13:13:22;;;;;;;3.53;1.37;;;11.60;99.90;;;;;;5108684;28;20254;-72
2023/02/21 13:15:52;;;;;;;2.87;1.60;;;11.60;99.90;;;;;;5111525;27;20331;-73
2023/02/21 13:18:24;;;;;;;4.50;1.50;;;11.60;99.90;;;;;;5117468;27;20672;-73
2023/02/21 13:20:56;;;;;;;3.97;1.53;;;11.50;99.90;;;;;;5128660;27;20701;-73
2023/02/21 13:24:04;;;;;;;4.03;1.60;;;11.30;99.90;;;;;;5128828;27;20615;-73
2023/02/21 13:26:48;;;;;;;4.93;1.70;;;11.20;99.90;;;;;;5128645;27;20200;-73
2023/02/21 13:29:24;;;;;;;5.07;1.40;;;11.20;99.90;;;;;;5128787;27;20208;-73
2023/02/21 13:31:59;;;;;;;4.77;1.53;;;11.20;99.90;;;;;;5112013;27;20218;-73
2023/02/21 13:34:35;;;;;;;4.23;1.10;;;11.30;99.90;;;;;;5108348;28;20232;-73
2023/02/21 13:37:05;;;;;;;3.30;1.43;;;11.30;99.90;;;;;;5091255;28;20206;-73
2023/02/21 13:39:36;;;;;;;5.07;1.70;;;11.40;99.90;;;;;;5092539;28;20202;-73
2023/02/21 13:42:08;;;;;;;3.73;0.90;;;11.30;99.90;;;;;;5108011;28;20190;-73
2023/02/21 13:44:38;;;;;;;5.37;2.37;;;11.30;99.90;;;;;;5107839;28;20228;-73
2023/02/21 13:47:12;;;;;;;2.70;1.30;;;11.30;99.90;;;;;;5108055;28;20218;-73
2023/02/21 13:49:58;;;;;;;5.13;1.80;;;11.20;99.90;;;;;;5121494;27;20716;-73
2023/02/21 13:52:50;;;;;;;3.50;1.30;;;11.10;99.90;;;;;;5128275;27;20301;-73
2023/02/21 13:55:27;;;;;;;3.83;1.60;;;11.10;99.90;;;;;;5128968;27;20613;-73
2023/02/21 13:58:31;;;;;;;6.33;1.77;;;11.10;99.90;;;;;;5126727;27;20209;-73
2023/02/21 14:01:17;;;;;;;3.67;1.30;;;11.10;99.90;;;;;;5104912;28;20241;-73
2023/02/21 14:03:45;;;;;;;5.40;1.50;;;11.10;99.90;;;;;;5107547;28;20194;-73
2023/02/21 14:06:35;;;;;;;4.03;1.70;;;11.00;99.90;;;;;;5107913;28;20210;-73
2023/02/21 14:09:07;;;;;;;3.90;1.57;;;11.00;99.90;;;;;;5099161;27;20238;-73
2023/02/21 14:11:38;;;;;;;6.43;1.77;;;11.00;99.90;;;;;;5108304;28;20226;-73
2023/02/21 14:14:19;;;;;;;6.30;1.77;;;11.00;99.90;;;;;;5117209;28;20330;-73
2023/02/21 14:16:49;;;;;;;5.00;1.90;;;11.00;99.90;;;;;;5107825;28;20194;-73
2023/02/21 14:19:23;;;;;;;7.33;2.03;;;11.00;99.90;;;;;;5118218;28;20209;-73
2023/02/21 14:21:59;;;;;;;3.93;1.73;;;11.00;99.90;;;;;;5130628;27;20281;-73
2023/02/21 14:24:28;;;;;;;6.73;1.93;;;10.90;99.90;;;;;;5131481;27;20189;-73
2023/02/21 14:26:57;;;;;;;3.63;1.80;;;10.90;99.90;;;;;;5132185;27;20274;-73
2023/02/21 14:29:31;;;;;;;6.47;1.50;;;10.90;99.90;;;;;;5132244;27;20198;-73
2023/02/21 14:32:23;;;;;;;6.07;1.90;;;10.90;99.90;;;;;;5113877;27;20286;-73
2023/02/21 14:34:54;;;;;;;6.40;1.80;;;10.80;99.90;;;;;;5111678;28;20269;-73
2023/02/21 14:37:30;;;;;;;5.57;2.20;;;10.90;99.90;;;;;;5111710;28;20268;-73
2023/02/21 14:40:00;;;;;;;7.30;1.77;;;10.80;99.90;;;;;;5111178;28;20238;-73
2023/02/21 14:42:41;;;;;;;6.83;2.27;;;10.80;99.90;;;;;;5111748;28;20206;-73
2023/02/21 14:45:50;;;;;;;7.33;2.03;;;10.80;99.90;;;;;;5111136;28;20259;-73
2023/02/21 14:48:45;;;;;;;5.13;1.70;;;10.80;99.90;;;;;;5084021;27;20237;-73
2023/02/21 14:51:49;;;;;;;6.63;2.10;;;10.80;99.90;;;;;;5131535;27;20388;-73
2023/02/21 14:54:56;;;;;;;5.97;1.97;;;10.80;99.90;;;;;;5129699;27;20280;-73
2023/02/21 14:57:59;;;;;;;6.23;1.87;;;10.80;99.90;;;;;;5110886;28;20233;-73
2023/02/21 15:00:35;;;;;;;5.33;1.83;;;10.80;99.90;;;;;;5111001;28;20257;-73
2023/02/21 15:03:10;;;;;;;4.93;1.90;;;10.80;99.90;;;;;;5110656;28;20194;-73
2023/02/21 15:05:43;;;;;;;8.00;2.13;;;10.80;99.90;;;;;;5111206;27;20742;-73
2023/02/21 15:08:17;;;;;;;8.07;2.40;;;10.80;99.90;;;;;;5112314;27;20244;-73
2023/02/21 15:10:47;;;;;;;6.53;1.97;;;10.80;99.90;;;;;;5117963;27;20272;-73
2023/02/21 15:13:22;;;;;;;6.83;2.43;;;10.80;99.90;;;;;;5110764;28;20654;-73
2023/02/21 15:15:56;;;;;;;11.83;2.70;;;10.70;99.90;;;;;;5110845;28;20912;-73
2023/02/21 15:18:26;;;;;;;8.40;2.53;;;10.70;99.90;;;;;;5113691;27;20201;-72
2023/02/21 15:21:05;;;;;;;8.90;2.27;;;10.70;99.90;;;;;;5131332;27;20284;-73
2023/02/21 15:23:33;;;;;;;8.63;2.73;;;10.70;99.90;;;;;;5130727;27;20681;-73
2023/02/21 15:26:15;;;;;;;6.23;2.40;;;10.70;99.90;;;;;;5130691;27;20201;-73
2023/02/21 15:28:43;;;;;;;9.57;2.63;;;10.70;99.90;;;;;;5120904;27;20289;-73